sensor_id;sensor_type;location;lat;lon;timestamp;pressure;altitude;pressure_sealevel;temperature;humidity
48402;BME280;34201;52.438;16.744;2022-07-17T00:02:04;101205.84;;;13.01;89.15
48402;BME280;34201;52.438;16.744;2022-07-17T00:04:29;101205.13;;;12.95;89.56
48402;BME280;34201;52.438;16.744;2022-07-17T00:06:54;101211.09;;;12.98;89.26
48402;BME280;34201;52.438;16.744;2022-07-17T00:09:20;101207.03;;;12.87;89.81
48402;BME280;34201;52.438;16.744;2022-07-17T00:11:45;101213.94;;;12.88;89.78
48402;BME280;34201;52.438;16.744;2022-07-17T00:14:11;101224.28;;;12.89;90.28
48402;BME280;34201;52.438;16.744;2022-07-17T00:16:36;101215.03;;;12.76;90.59
48402;BME280;34201;52.438;16.744;2022-07-17T00:19:02;101244.44;;;12.78;90.61
48402;BME280;34201;52.438;16.744;2022-07-17T00:21:27;101239.34;;;12.73;90.83
48402;BME280;34201;52.438;16.744;2022-07-17T00:23:53;101244.53;;;12.73;90.85
48402;BME280;34201;52.438;16.744;2022-07-17T00:26:18;101243.72;;;12.70;90.89
48402;BME280;34201;52.438;16.744;2022-07-17T00:28:43;101238.53;;;12.70;90.64
48402;BME280;34201;52.438;16.744;2022-07-17T00:31:09;101237.47;;;12.78;90.38
48402;BME280;34201;52.438;16.744;2022-07-17T00:33:37;101227.97;;;12.79;89.94
48402;BME280;34201;52.438;16.744;2022-07-17T00:36:03;101232.41;;;12.74;90.16
48402;BME280;34201;52.438;16.744;2022-07-17T00:38:28;101243.50;;;12.80;90.22
48402;BME280;34201;52.438;16.744;2022-07-17T00:40:55;101237.59;;;12.74;90.56
48402;BME280;34201;52.438;16.744;2022-07-17T00:43:22;101245.53;;;12.68;90.58
48402;BME280;34201;52.438;16.744;2022-07-17T00:46:01;101251.59;;;12.66;90.89
48402;BME280;34201;52.438;16.744;2022-07-17T00:48:27;101259.38;;;12.66;91.16
48402;BME280;34201;52.438;16.744;2022-07-17T00:50:53;101262.88;;;12.64;91.35
48402;BME280;34201;52.438;16.744;2022-07-17T00:53:18;101256.19;;;12.54;91.48
48402;BME280;34201;52.438;16.744;2022-07-17T00:55:46;101266.66;;;12.47;92.02
48402;BME280;34201;52.438;16.744;2022-07-17T00:58:24;101284.91;;;12.43;92.45
48402;BME280;34201;52.438;16.744;2022-07-17T01:00:51;101292.66;;;12.44;92.94
48402;BME280;34201;52.438;16.744;2022-07-17T01:03:18;101299.72;;;12.36;93.18
48402;BME280;34201;52.438;16.744;2022-07-17T01:05:45;101303.13;;;12.40;93.25
48402;BME280;34201;52.438;16.744;2022-07-17T01:08:10;101294.53;;;12.36;93.50
48402;BME280;34201;52.438;16.744;2022-07-17T01:10:36;101310.13;;;12.35;93.55
48402;BME280;34201;52.438;16.744;2022-07-17T01:13:01;101308.19;;;12.46;93.29
48402;BME280;34201;52.438;16.744;2022-07-17T01:15:27;101316.00;;;12.44;93.40
48402;BME280;34201;52.438;16.744;2022-07-17T01:17:54;101306.56;;;12.40;93.25
48402;BME280;34201;52.438;16.744;2022-07-17T01:20:19;101304.81;;;12.42;93.16
48402;BME280;34201;52.438;16.744;2022-07-17T01:22:47;101316.03;;;12.43;93.52
48402;BME280;34201;52.438;16.744;2022-07-17T01:25:14;101303.25;;;12.32;93.85
48402;BME280;34201;52.438;16.744;2022-07-17T01:27:40;101306.66;;;12.36;93.64
48402;BME280;34201;52.438;16.744;2022-07-17T01:30:06;101320.38;;;12.41;93.96
48402;BME280;34201;52.438;16.744;2022-07-17T01:32:38;101292.97;;;12.29;93.85
48402;BME280;34201;52.438;16.744;2022-07-17T01:35:04;101305.22;;;12.19;94.39
48402;BME280;34201;52.438;16.744;2022-07-17T01:37:31;101307.75;;;12.22;94.71
48402;BME280;34201;52.438;16.744;2022-07-17T01:39:57;101309.59;;;12.15;94.71
48402;BME280;34201;52.438;16.744;2022-07-17T01:42:24;101314.66;;;12.23;94.87
48402;BME280;34201;52.438;16.744;2022-07-17T01:44:50;101319.03;;;12.20;95.08
48402;BME280;34201;52.438;16.744;2022-07-17T01:47:16;101309.69;;;12.11;95.07
48402;BME280;34201;52.438;16.744;2022-07-17T01:49:50;101320.69;;;12.24;95.30
48402;BME280;34201;52.438;16.744;2022-07-17T01:52:16;101308.75;;;12.15;95.19
48402;BME280;34201;52.438;16.744;2022-07-17T01:54:42;101310.53;;;12.11;95.59
48402;BME280;34201;52.438;16.744;2022-07-17T01:57:09;101318.53;;;12.01;96.07
48402;BME280;34201;52.438;16.744;2022-07-17T01:59:35;101332.31;;;12.03;96.28
48402;BME280;34201;52.438;16.744;2022-07-17T02:02:03;101333.03;;;12.11;96.32
48402;BME280;34201;52.438;16.744;2022-07-17T02:04:30;101315.97;;;11.97;96.53
48402;BME280;34201;52.438;16.744;2022-07-17T02:06:56;101325.50;;;11.95;96.85
48402;BME280;34201;52.438;16.744;2022-07-17T02:09:22;101336.75;;;11.93;97.36
48402;BME280;34201;52.438;16.744;2022-07-17T02:11:47;101343.97;;;11.74;98.46
48402;BME280;34201;52.438;16.744;2022-07-17T02:14:13;101361.31;;;11.69;99.05
48402;BME280;34201;52.438;16.744;2022-07-17T02:16:38;101358.06;;;11.56;99.88
48402;BME280;34201;52.438;16.744;2022-07-17T02:19:03;101381.53;;;11.43;100.00
48402;BME280;34201;52.438;16.744;2022-07-17T02:21:29;101384.25;;;11.34;100.00
48402;BME280;34201;52.438;16.744;2022-07-17T02:23:54;101394.63;;;11.33;100.00
48402;BME280;34201;52.438;16.744;2022-07-17T02:26:19;101397.31;;;11.26;100.00
48402;BME280;34201;52.438;16.744;2022-07-17T02:28:45;101413.03;;;11.11;100.00
48402;BME280;34201;52.438;16.744;2022-07-17T02:31:10;101412.22;;;11.04;100.00
48402;BME280;34201;52.438;16.744;2022-07-17T02:33:35;101425.25;;;10.96;100.00
48402;BME280;34201;52.438;16.744;2022-07-17T02:36:01;101435.59;;;11.00;100.00
48402;BME280;34201;52.438;16.744;2022-07-17T02:38:27;101434.75;;;10.94;100.00
48402;BME280;34201;52.438;16.744;2022-07-17T02:40:52;101445.94;;;10.96;100.00
48402;BME280;34201;52.438;16.744;2022-07-17T02:43:18;101446.88;;;10.91;100.00
48402;BME280;34201;52.438;16.744;2022-07-17T02:45:43;101464.13;;;10.90;100.00
48402;BME280;34201;52.438;16.744;2022-07-17T02:48:09;101470.28;;;10.80;100.00
48402;BME280;34201;52.438;16.744;2022-07-17T02:50:34;101487.63;;;10.70;100.00
48402;BME280;34201;52.438;16.744;2022-07-17T02:53:00;101517.72;;;10.74;100.00
48402;BME280;34201;52.438;16.744;2022-07-17T02:55:25;101516.88;;;10.74;100.00
48402;BME280;34201;52.438;16.744;2022-07-17T02:57:50;101520.31;;;10.74;100.00
48402;BME280;34201;52.438;16.744;2022-07-17T03:00:17;101538.47;;;10.71;100.00
48402;BME280;34201;52.438;16.744;2022-07-17T03:02:44;101547.13;;;10.67;100.00
48402;BME280;34201;52.438;16.744;2022-07-17T03:05:10;101550.56;;;10.69;100.00
48402;BME280;34201;52.438;16.744;2022-07-17T03:07:36;101541.97;;;10.66;100.00
48402;BME280;34201;52.438;16.744;2022-07-17T03:10:02;101554.00;;;10.70;100.00
48402;BME280;34201;52.438;16.744;2022-07-17T03:12:28;101553.94;;;10.74;100.00
48402;BME280;34201;52.438;16.744;2022-07-17T03:14:53;101546.22;;;10.76;100.00
48402;BME280;34201;52.438;16.744;2022-07-17T03:17:18;101543.63;;;10.76;100.00
48402;BME280;34201;52.438;16.744;2022-07-17T03:19:45;101571.34;;;10.55;100.00
48402;BME280;34201;52.438;16.744;2022-07-17T03:22:10;101601.63;;;10.42;100.00
48402;BME280;34201;52.438;16.744;2022-07-17T03:24:35;101623.97;;;10.50;100.00
48402;BME280;34201;52.438;16.744;2022-07-17T03:27:01;101646.38;;;10.49;100.00
48402;BME280;34201;52.438;16.744;2022-07-17T03:29:26;101648.09;;;10.52;100.00
48402;BME280;34201;52.438;16.744;2022-07-17T03:31:51;101650.69;;;10.50;100.00
48402;BME280;34201;52.438;16.744;2022-07-17T03:34:17;101647.25;;;10.50;100.00
48402;BME280;34201;52.438;16.744;2022-07-17T03:36:42;101658.44;;;10.50;100.00
48402;BME280;34201;52.438;16.744;2022-07-17T03:39:09;101661.00;;;10.58;100.00
48402;BME280;34201;52.438;16.744;2022-07-17T03:41:34;101663.50;;;10.69;100.00
48402;BME280;34201;52.438;16.744;2022-07-17T03:44:00;101647.09;;;10.73;100.00
48402;BME280;34201;52.438;16.744;2022-07-17T03:46:25;101643.69;;;10.69;100.00
48402;BME280;34201;52.438;16.744;2022-07-17T03:48:51;101646.22;;;10.80;100.00
48402;BME280;34201;52.438;16.744;2022-07-17T03:51:17;101633.28;;;10.77;100.00
48402;BME280;34201;52.438;16.744;2022-07-17T03:53:42;101636.69;;;10.85;100.00
48402;BME280;34201;52.438;16.744;2022-07-17T03:56:07;101635.84;;;10.83;100.00
48402;BME280;34201;52.438;16.744;2022-07-17T03:58:33;101635.81;;;10.86;100.00
48402;BME280;34201;52.438;16.744;2022-07-17T04:00:59;101621.97;;;10.92;100.00
48402;BME280;34201;52.438;16.744;2022-07-17T04:03:24;101606.38;;;11.03;100.00
48402;BME280;34201;52.438;16.744;2022-07-17T04:05:50;101588.25;;;11.01;100.00
48402;BME280;34201;52.438;16.744;2022-07-17T04:08:17;101587.31;;;11.10;100.00
48402;BME280;34201;52.438;16.744;2022-07-17T04:10:43;101585.59;;;11.07;100.00
48402;BME280;34201;52.438;16.744;2022-07-17T04:13:09;101588.16;;;11.12;100.00
48402;BME280;34201;52.438;16.744;2022-07-17T04:15:34;101572.63;;;11.12;100.00
48402;BME280;34201;52.438;16.744;2022-07-17T04:18:17;101565.75;;;11.11;100.00
48402;BME280;34201;52.438;16.744;2022-07-17T04:20:43;101584.66;;;11.16;100.00
48402;BME280;34201;52.438;16.744;2022-07-17T04:23:08;101569.19;;;11.10;100.00
48402;BME280;34201;52.438;16.744;2022-07-17T04:25:34;101597.56;;;11.22;100.00
48402;BME280;34201;52.438;16.744;2022-07-17T04:27:59;101587.09;;;11.32;100.00
48402;BME280;34201;52.438;16.744;2022-07-17T04:30:25;101572.31;;;11.44;100.00
48402;BME280;34201;52.438;16.744;2022-07-17T04:32:50;101531.75;;;11.43;100.00
48402;BME280;34201;52.438;16.744;2022-07-17T04:35:16;101523.06;;;11.47;100.00
48402;BME280;34201;52.438;16.744;2022-07-17T04:37:41;101508.28;;;11.57;100.00
48402;BME280;34201;52.438;16.744;2022-07-17T04:40:07;101507.28;;;11.68;100.00
48402;BME280;34201;52.438;16.744;2022-07-17T04:42:33;101492.50;;;11.76;100.00
48402;BME280;34201;52.438;16.744;2022-07-17T04:44:58;101479.47;;;11.80;100.00
48402;BME280;34201;52.438;16.744;2022-07-17T04:47:23;101480.97;;;11.98;100.00
48402;BME280;34201;52.438;16.744;2022-07-17T04:49:49;101464.47;;;12.04;100.00
48402;BME280;34201;52.438;16.744;2022-07-17T04:52:14;101467.91;;;12.06;100.00
48402;BME280;34201;52.438;16.744;2022-07-17T04:54:39;101463.44;;;12.16;100.00
48402;BME280;34201;52.438;16.744;2022-07-17T04:57:04;101442.63;;;12.21;100.00
48402;BME280;34201;52.438;16.744;2022-07-17T04:59:30;101439.94;;;12.28;100.00
48402;BME280;34201;52.438;16.744;2022-07-17T05:01:56;101431.97;;;12.38;100.00
48402;BME280;34201;52.438;16.744;2022-07-17T05:04:22;101431.91;;;12.44;100.00
48402;BME280;34201;52.438;16.744;2022-07-17T05:06:47;101430.09;;;12.47;100.00
48402;BME280;34201;52.438;16.744;2022-07-17T05:09:12;101428.34;;;12.49;100.00
48402;BME280;34201;52.438;16.744;2022-07-17T05:11:38;101440.28;;;12.58;100.00
48402;BME280;34201;52.438;16.744;2022-07-17T05:14:03;101440.97;;;12.68;100.00
48402;BME280;34201;52.438;16.744;2022-07-17T05:16:29;101415.19;;;12.59;100.00
48402;BME280;34201;52.438;16.744;2022-07-17T05:18:55;101433.09;;;12.73;100.00
48402;BME280;34201;52.438;16.744;2022-07-17T05:21:21;101433.75;;;12.84;99.90
48402;BME280;34201;52.438;16.744;2022-07-17T05:23:46;101420.75;;;12.87;99.28
48402;BME280;34201;52.438;16.744;2022-07-17T05:26:11;101432.78;;;12.90;99.45
48402;BME280;34201;52.438;16.744;2022-07-17T05:28:37;101430.84;;;13.03;99.05
48402;BME280;34201;52.438;16.744;2022-07-17T05:31:02;101431.53;;;13.09;98.42
48402;BME280;34201;52.438;16.744;2022-07-17T05:33:28;101420.19;;;13.15;97.76
48402;BME280;34201;52.438;16.744;2022-07-17T05:35:53;101432.84;;;13.32;97.64
48402;BME280;34201;52.438;16.744;2022-07-17T05:38:19;101432.81;;;13.33;97.47
48402;BME280;34201;52.438;16.744;2022-07-17T05:40:45;101425.81;;;13.37;97.16
48402;BME280;34201;52.438;16.744;2022-07-17T05:43:10;101433.41;;;13.48;97.11
48402;BME280;34201;52.438;16.744;2022-07-17T05:45:35;101446.16;;;13.59;96.81
48402;BME280;34201;52.438;16.744;2022-07-17T05:48:01;101452.03;;;13.68;96.74
48402;BME280;34201;52.438;16.744;2022-07-17T05:50:29;101445.91;;;13.69;95.88
48402;BME280;34201;52.438;16.744;2022-07-17T05:52:54;101436.50;;;13.65;95.48
48402;BME280;34201;52.438;16.744;2022-07-17T05:55:20;101464.59;;;13.87;95.68
48402;BME280;34201;52.438;16.744;2022-07-17T05:57:45;101443.63;;;13.95;95.35
48402;BME280;34201;52.438;16.744;2022-07-17T06:00:11;101444.28;;;14.03;94.96
48402;BME280;34201;52.438;16.744;2022-07-17T06:02:36;101432.94;;;14.07;94.17
48402;BME280;34201;52.438;16.744;2022-07-17T06:05:02;101426.69;;;14.16;93.53
48402;BME280;34201;52.438;16.744;2022-07-17T06:07:27;101433.34;;;14.26;93.27
48402;BME280;34201;52.438;16.744;2022-07-17T06:09:52;101423.88;;;14.24;93.35
48402;BME280;34201;52.438;16.744;2022-07-17T06:12:18;101430.50;;;14.37;92.96
48402;BME280;34201;52.438;16.744;2022-07-17T06:14:43;101431.03;;;14.50;92.31
48402;BME280;34201;52.438;16.744;2022-07-17T06:17:08;101405.16;;;14.44;91.80
48402;BME280;34201;52.438;16.744;2022-07-17T06:19:34;101424.91;;;14.52;92.21
48402;BME280;34201;52.438;16.744;2022-07-17T06:21:59;101435.81;;;14.67;91.86
48402;BME280;34201;52.438;16.744;2022-07-17T06:24:24;101413.75;;;14.82;90.73
48402;BME280;34201;52.438;16.744;2022-07-17T06:26:50;101415.31;;;14.87;90.30
48402;BME280;34201;52.438;16.744;2022-07-17T06:29:16;101400.03;;;14.75;90.14
48402;BME280;34201;52.438;16.744;2022-07-17T06:31:41;101438.44;;;14.98;91.00
48402;BME280;34201;52.438;16.744;2022-07-17T06:34:06;101421.72;;;15.07;89.85
48402;BME280;34201;52.438;16.744;2022-07-17T06:36:32;101409.28;;;15.17;89.14
48402;BME280;34201;52.438;16.744;2022-07-17T06:38:57;101398.06;;;15.15;88.85
48402;BME280;34201;52.438;16.744;2022-07-17T06:41:22;101403.09;;;15.21;88.13
48402;BME280;34201;52.438;16.744;2022-07-17T06:43:48;101393.75;;;15.14;88.10
48402;BME280;34201;52.438;16.744;2022-07-17T06:46:13;101389.38;;;15.14;88.23
48402;BME280;34201;52.438;16.744;2022-07-17T06:48:38;101394.34;;;15.22;87.75
48402;BME280;34201;52.438;16.744;2022-07-17T06:51:04;101406.03;;;15.38;87.73
48402;BME280;34201;52.438;16.744;2022-07-17T06:53:29;101395.25;;;15.51;87.76
48402;BME280;34201;52.438;16.744;2022-07-17T06:55:55;101404.06;;;15.75;86.71
48402;BME280;34201;52.438;16.744;2022-07-17T06:58:20;101383.25;;;15.73;86.64
48402;BME280;34201;52.438;16.744;2022-07-17T07:00:45;101385.63;;;16.10;84.83
48402;BME280;34201;52.438;16.744;2022-07-17T07:03:11;101361.31;;;16.34;83.45
48402;BME280;34201;52.438;16.744;2022-07-17T07:05:36;101331.66;;;16.60;81.31
48402;BME280;34201;52.438;16.744;2022-07-17T07:08:02;101324.38;;;16.94;80.17
48402;BME280;34201;52.438;16.744;2022-07-17T07:10:27;101306.94;;;16.95;79.02
48402;BME280;34201;52.438;16.744;2022-07-17T07:12:53;101277.00;;;16.56;79.65
48402;BME280;34201;52.438;16.744;2022-07-17T07:15:18;101297.44;;;16.68;79.86
48402;BME280;34201;52.438;16.744;2022-07-17T07:17:44;101279.34;;;17.11;77.51
48402;BME280;34201;52.438;16.744;2022-07-17T07:20:10;101244.97;;;16.98;76.23
48402;BME280;34201;52.438;16.744;2022-07-17T07:22:36;101221.47;;;16.74;75.88
48402;BME280;34201;52.438;16.744;2022-07-17T07:25:05;101241.28;;;16.80;76.07
48402;BME280;34201;52.438;16.744;2022-07-17T07:27:31;101223.75;;;16.84;75.47
48402;BME280;34201;52.438;16.744;2022-07-17T07:29:56;101189.28;;;16.98;73.37
48402;BME280;34201;52.438;16.744;2022-07-17T07:32:21;101187.81;;;16.90;72.98
48402;BME280;34201;52.438;16.744;2022-07-17T07:34:47;101180.81;;;16.91;72.73
48402;BME280;34201;52.438;16.744;2022-07-17T07:37:12;101200.69;;;16.95;73.57
48402;BME280;34201;52.438;16.744;2022-07-17T07:39:43;101146.97;;;17.10;71.44
48402;BME280;34201;52.438;16.744;2022-07-17T07:42:09;101140.78;;;17.13;70.80
48402;BME280;34201;52.438;16.744;2022-07-17T07:44:34;101145.91;;;17.36;70.16
48402;BME280;34201;52.438;16.744;2022-07-17T07:47:02;101120.16;;;17.48;69.31
48402;BME280;34201;52.438;16.744;2022-07-17T07:49:28;101113.31;;;17.64;67.85
48402;BME280;34201;52.438;16.744;2022-07-17T07:51:53;101096.31;;;17.74;67.49
48402;BME280;34201;52.438;16.744;2022-07-17T07:54:18;101087.03;;;17.86;66.53
48402;BME280;34201;52.438;16.744;2022-07-17T07:56:44;101064.75;;;17.58;66.00
48402;BME280;34201;52.438;16.744;2022-07-17T07:59:09;101052.03;;;17.51;64.91
48402;BME280;34201;52.438;16.744;2022-07-17T08:01:37;101061.41;;;17.75;64.70
48402;BME280;34201;52.438;16.744;2022-07-17T08:04:03;101048.03;;;17.82;63.90
48402;BME280;34201;52.438;16.744;2022-07-17T08:06:28;101055.69;;;17.47;65.48
48402;BME280;34201;52.438;16.744;2022-07-17T08:08:53;101097.28;;;17.72;65.76
48402;BME280;34201;52.438;16.744;2022-07-17T08:11:19;101094.25;;;17.41;66.62
48402;BME280;34201;52.438;16.744;2022-07-17T08:13:44;101114.66;;;17.13;67.36
48402;BME280;34201;52.438;16.744;2022-07-17T08:16:10;101150.06;;;17.20;67.58
48402;BME280;34201;52.438;16.744;2022-07-17T08:18:35;101140.31;;;17.44;66.95
48402;BME280;34201;52.438;16.744;2022-07-17T08:21:01;101154.31;;;17.43;67.81
48402;BME280;34201;52.438;16.744;2022-07-17T08:23:26;101131.72;;;17.42;66.73
48402;BME280;34201;52.438;16.744;2022-07-17T08:25:52;101137.78;;;17.42;67.18
48402;BME280;34201;52.438;16.744;2022-07-17T08:28:17;101142.63;;;17.52;67.11
48402;BME280;34201;52.438;16.744;2022-07-17T08:30:43;101160.44;;;17.83;67.08
48402;BME280;34201;52.438;16.744;2022-07-17T08:33:09;101178.09;;;17.99;67.41
48402;BME280;34201;52.438;16.744;2022-07-17T08:35:36;101116.38;;;17.74;65.75
48402;BME280;34201;52.438;16.744;2022-07-17T08:38:02;101123.66;;;17.47;66.49
48402;BME280;34201;52.438;16.744;2022-07-17T08:40:30;101141.28;;;17.83;66.28
48402;BME280;34201;52.438;16.744;2022-07-17T08:42:57;101134.41;;;18.01;65.92
48402;BME280;34201;52.438;16.744;2022-07-17T08:45:23;101096.25;;;17.76;64.92
48402;BME280;34201;52.438;16.744;2022-07-17T08:47:54;101108.88;;;17.45;66.10
48402;BME280;34201;52.438;16.744;2022-07-17T08:50:27;101136.34;;;17.35;66.46
48402;BME280;34201;52.438;16.744;2022-07-17T08:52:54;101113.88;;;16.88;66.79
48402;BME280;34201;52.438;16.744;2022-07-17T08:55:20;101167.59;;;17.79;66.53
48402;BME280;34201;52.438;16.744;2022-07-17T08:57:45;101160.94;;;18.69;64.33
48402;BME280;34201;52.438;16.744;2022-07-17T09:00:15;101151.69;;;18.98;64.89
48402;BME280;34201;52.438;16.744;2022-07-17T09:05:23;101040.91;;;18.04;63.20
48402;BME280;34201;52.438;16.744;2022-07-17T09:07:49;101072.88;;;17.92;64.55
48402;BME280;34201;52.438;16.744;2022-07-17T09:10:15;101118.56;;;18.42;63.42
48402;BME280;34201;52.438;16.744;2022-07-17T09:12:41;101118.78;;;19.10;63.41
48402;BME280;34201;52.438;16.744;2022-07-17T09:15:19;101072.94;;;19.86;60.91
48402;BME280;34201;52.438;16.744;2022-07-17T09:18:02;101048.91;;;19.27;62.03
48402;BME280;34201;52.438;16.744;2022-07-17T09:20:27;101008.69;;;18.58;61.56
48402;BME280;34201;52.438;16.744;2022-07-17T09:23:04;101056.34;;;18.47;62.44
48402;BME280;34201;52.438;16.744;2022-07-17T09:25:49;101041.00;;;18.93;61.36
48402;BME280;34201;52.438;16.744;2022-07-17T09:28:15;101060.16;;;19.80;60.21
48402;BME280;34201;52.438;16.744;2022-07-17T09:30:49;101023.16;;;19.35;61.46
48402;BME280;34201;52.438;16.744;2022-07-17T09:33:20;101042.59;;;18.78;61.94
48402;BME280;34201;52.438;16.744;2022-07-17T09:38:13;101042.56;;;20.14;58.59
48402;BME280;34201;52.438;16.744;2022-07-17T09:40:39;101017.00;;;20.48;57.13
48402;BME280;34201;52.438;16.744;2022-07-17T09:43:23;101029.09;;;20.66;57.02
48402;BME280;34201;52.438;16.744;2022-07-17T09:45:48;101026.16;;;19.61;58.84
48402;BME280;34201;52.438;16.744;2022-07-17T09:48:14;101059.25;;;19.30;60.05
48402;BME280;34201;52.438;16.744;2022-07-17T09:50:40;101083.00;;;19.09;60.64
48402;BME280;34201;52.438;16.744;2022-07-17T09:53:07;101136.16;;;19.81;60.84
48402;BME280;34201;52.438;16.744;2022-07-17T09:55:33;101111.75;;;20.29;58.95
48402;BME280;34201;52.438;16.744;2022-07-17T09:57:59;101035.38;;;20.17;58.72
48402;BME280;34201;52.438;16.744;2022-07-17T10:00:27;101012.28;;;19.59;58.56
48402;BME280;34201;52.438;16.744;2022-07-17T10:02:53;101083.75;;;19.29;60.62
48402;BME280;34201;52.438;16.744;2022-07-17T10:05:19;101105.84;;;19.07;61.31
48402;BME280;34201;52.438;16.744;2022-07-17T10:07:45;101115.50;;;19.58;60.68
48402;BME280;34201;52.438;16.744;2022-07-17T10:10:12;101066.59;;;19.06;61.48
48402;BME280;34201;52.438;16.744;2022-07-17T10:12:39;101107.66;;;19.05;62.28
48402;BME280;34201;52.438;16.744;2022-07-17T10:15:06;101077.91;;;19.06;60.64
48402;BME280;34201;52.438;16.744;2022-07-17T10:17:34;101063.84;;;19.76;59.22
48402;BME280;34201;52.438;16.744;2022-07-17T10:20:00;101112.16;;;20.05;59.96
48402;BME280;34201;52.438;16.744;2022-07-17T10:22:26;101061.44;;;20.67;57.73
48402;BME280;34201;52.438;16.744;2022-07-17T10:24:56;101038.56;;;21.14;56.45
48402;BME280;34201;52.438;16.744;2022-07-17T10:27:26;101045.22;;;20.91;56.91
48402;BME280;34201;52.438;16.744;2022-07-17T10:30:05;101029.47;;;20.91;56.66
48402;BME280;34201;52.438;16.744;2022-07-17T10:32:31;101021.50;;;21.50;55.92
48402;BME280;34201;52.438;16.744;2022-07-17T10:35:04;100998.63;;;20.78;57.52
48402;BME280;34201;52.438;16.744;2022-07-17T10:37:39;101070.59;;;20.92;57.79
48402;BME280;34201;52.438;16.744;2022-07-17T10:40:06;101021.28;;;20.95;56.39
48402;BME280;34201;52.438;16.744;2022-07-17T10:42:43;101051.28;;;21.07;56.82
48402;BME280;34201;52.438;16.744;2022-07-17T10:47:53;101028.66;;;20.74;57.17
48402;BME280;34201;52.438;16.744;2022-07-17T10:50:25;101056.19;;;21.42;56.47
48402;BME280;34201;52.438;16.744;2022-07-17T10:53:08;101004.03;;;21.20;55.88
48402;BME280;34201;52.438;16.744;2022-07-17T10:55:37;100958.88;;;20.99;54.06
48402;BME280;34201;52.438;16.744;2022-07-17T10:58:04;100981.41;;;21.46;54.11
48402;BME280;34201;52.438;16.744;2022-07-17T11:00:38;100983.63;;;21.67;54.49
48402;BME280;34201;52.438;16.744;2022-07-17T11:03:11;100988.81;;;21.68;54.63
48402;BME280;34201;52.438;16.744;2022-07-17T11:05:37;101026.88;;;21.34;56.05
48402;BME280;34201;52.438;16.744;2022-07-17T11:08:02;101049.38;;;21.09;57.12
48402;BME280;34201;52.438;16.744;2022-07-17T11:10:31;101061.91;;;21.49;57.04
48402;BME280;34201;52.438;16.744;2022-07-17T11:13:10;101006.34;;;21.97;54.56
48402;BME280;34201;52.438;16.744;2022-07-17T11:18:17;100998.47;;;21.39;55.11
48402;BME280;34201;52.438;16.744;2022-07-17T11:20:58;100968.31;;;21.74;54.19
48402;BME280;34201;52.438;16.744;2022-07-17T11:23:26;101006.28;;;22.11;54.49
48402;BME280;34201;52.438;16.744;2022-07-17T11:26:04;100967.41;;;21.31;54.88
48402;BME280;34201;52.438;16.744;2022-07-17T11:30:57;101000.72;;;22.43;53.82
48402;BME280;34201;52.438;16.744;2022-07-17T11:33:23;100940.22;;;21.74;53.49
48402;BME280;34201;52.438;16.744;2022-07-17T11:35:48;100995.53;;;22.14;54.07
48402;BME280;34201;52.438;16.744;2022-07-17T11:38:14;100984.16;;;22.41;53.08
48402;BME280;34201;52.438;16.744;2022-07-17T11:40:49;101002.69;;;22.80;52.99
48402;BME280;34201;52.438;16.744;2022-07-17T11:43:15;100920.13;;;21.59;53.03
48402;BME280;34201;52.438;16.744;2022-07-17T11:45:44;100965.63;;;21.61;53.93
48402;BME280;34201;52.438;16.744;2022-07-17T11:48:09;100949.06;;;21.73;53.21
48402;BME280;34201;52.438;16.744;2022-07-17T11:50:35;100940.31;;;22.00;52.43
48402;BME280;34201;52.438;16.744;2022-07-17T11:53:10;100966.91;;;22.50;53.09
48402;BME280;34201;52.438;16.744;2022-07-17T11:55:36;100979.53;;;22.17;54.04
48402;BME280;34201;52.438;16.744;2022-07-17T11:58:02;100947.72;;;22.61;52.17
48402;BME280;34201;52.438;16.744;2022-07-17T12:00:28;100938.13;;;22.98;51.35
48402;BME280;34201;52.438;16.744;2022-07-17T12:03:04;100907.59;;;22.70;50.95
48402;BME280;34201;52.438;16.744;2022-07-17T12:05:33;100939.94;;;22.98;50.85
48402;BME280;34201;52.438;16.744;2022-07-17T12:08:00;100924.88;;;22.48;52.10
48402;BME280;34201;52.438;16.744;2022-07-17T12:10:31;100911.91;;;22.05;51.88
48402;BME280;34201;52.438;16.744;2022-07-17T12:12:58;100906.81;;;22.42;51.02
48402;BME280;34201;52.438;16.744;2022-07-17T12:15:39;100948.38;;;22.77;51.83
48402;BME280;34201;52.438;16.744;2022-07-17T12:18:07;100963.03;;;22.68;52.52
48402;BME280;34201;52.438;16.744;2022-07-17T12:20:46;100899.69;;;22.70;50.80
48402;BME280;34201;52.438;16.744;2022-07-17T12:23:31;100957.16;;;22.90;51.92
48402;BME280;34201;52.438;16.744;2022-07-17T12:26:05;100910.19;;;22.96;50.69
48402;BME280;34201;52.438;16.744;2022-07-17T12:28:31;100911.97;;;23.08;50.86
48402;BME280;34201;52.438;16.744;2022-07-17T12:30:56;100902.59;;;23.30;50.46
48402;BME280;34201;52.438;16.744;2022-07-17T12:33:21;100912.63;;;23.24;51.17
48402;BME280;34201;52.438;16.744;2022-07-17T12:35:47;100923.50;;;23.20;51.43
48402;BME280;34201;52.438;16.744;2022-07-17T12:38:12;100949.47;;;23.13;52.25
48402;BME280;34201;52.438;16.744;2022-07-17T12:40:37;100959.84;;;23.53;51.97
48402;BME280;34201;52.438;16.744;2022-07-17T12:43:03;100916.41;;;23.20;50.76
48402;BME280;34201;52.438;16.744;2022-07-17T12:45:28;100899.41;;;23.24;51.11
48402;BME280;34201;52.438;16.744;2022-07-17T12:47:53;100889.31;;;23.18;49.94
48402;BME280;34201;52.438;16.744;2022-07-17T12:50:19;100934.34;;;23.15;50.91